Aquilla, Texas
Current Conditions -  °F | °C
As of 9:51 AM on Thursday 30 Oct 2014 (Local Time) from KACT Reporting Station
Overcast Overcast  
Wind Chill: 63°   Ceiling: 5500
Heat Index: 63°   Visibility: 10mi
Dew Point: 51°   Wind: 5mph
Humidity: 65%   Direction: 140°SE
Pressure: 30.18"   Gusts: NA
Location:  31.85°N, 97.22°W
Report Text: KACT 301451Z 14004KT 10SM OVC055 17/11 A3018 RMK AO2 SLP216 T01720106 53015
Loading
Personal Weather Stations






























Interactive Weather Map
Tropical Storm Tracking
New forecast layout! Learn more

10-Day Weather Forecast

Advertisements
Track Severe Weather on mobile